Portada
METAR-TAF:

METAR-TAF

Aeroports :

Franceville, Gabon

latitud: 01-39S, longitud: 013-26E, altitud: 441 m

Observació

L'informe es va fer fa 6 hores i 51 minuts, a les 18:00 UTC
Vent 2 kt del Oest
Temperatura 22°C
Humitat 100%
Pressió 1009 hPa
Visibilitat: 4000 m
Escasses núvols a una alçada de 200 ft
Núvols disperses a una alçada de 600 ft
boirina

METAR: FOON 011800Z 26002KT 4000 BR FEW002 SCT006 22/22 Q1009

Hora: 01:51 (00:51 UTC)


TAF: manca

Observacions i pronòstics meteorològics de més de 4000 aeroports (METAR i TAF).

Les estacions disponibles són els punts grocs i vermells al mapa.

Posi el ratolí al punt desitjat per veure el nom de l'estació.

Feu clic per veure les observacions i els pronòstics meteorològics.

Per canviar el mapa: feu clic els botons verds amb una creu de color negre per apropar; al botó verd amb un guió per allunyar la imatge; o en les fletxes verdes per a mapes adjacents.


METAR-TAF: